Time;durP1;ratioP1;P1;durP2;ratioP2;P2;SDS_P1;SDS_P2;PMS_P1;PMS_P2;Temp;Humidity;BMP_temperature;BMP_pressure;BME280_temperature;BME280_humidity;BME280_pressure;Samples;Min_cycle;Max_cycle;Signal;HPM_P1;HPM_P2
2023/12/16 00:01:14;;;;;;;14.27;3.90;;;;;;;;;;5110775;27;20569;-80
2023/12/16 00:03:40;;;;;;;13.85;2.78;;;;;;;;;;5128013;27;20047;-80
2023/12/16 00:06:07;;;;;;;19.33;3.47;;;;;;;;;;5110843;27;20039;-80
2023/12/16 00:08:33;;;;;;;16.00;2.63;;;;;;;;;;5128233;27;20034;-80
2023/12/16 00:10:59;;;;;;;19.63;3.45;;;;;;;;;;5110646;27;20645;-80
2023/12/16 00:13:25;;;;;;;10.30;2.35;;;;;;;;;;5110566;27;20399;-80
2023/12/16 00:15:51;;;;;;;15.05;2.33;;;;;;;;;;5110408;27;20483;-80
2023/12/16 00:18:18;;;;;;;10.80;2.28;;;;;;;;;;5127653;27;20053;-80
2023/12/16 00:20:44;;;;;;;12.60;2.78;;;;;;;;;;5127892;27;20042;-80
2023/12/16 00:23:10;;;;;;;13.45;3.45;;;;;;;;;;5127539;27;20099;-80
2023/12/16 00:25:36;;;;;;;16.02;2.08;;;;;;;;;;5127669;27;20157;-80
2023/12/16 00:28:02;;;;;;;9.75;2.28;;;;;;;;;;5110810;27;20038;-79
2023/12/16 00:30:28;;;;;;;19.88;2.75;;;;;;;;;;5127311;27;20073;-80
2023/12/16 00:32:54;;;;;;;12.68;2.97;;;;;;;;;;5127934;27;20034;-80
2023/12/16 00:35:20;;;;;;;14.55;2.20;;;;;;;;;;5110260;27;20499;-80
2023/12/16 00:37:47;;;;;;;12.95;2.67;;;;;;;;;;5127792;27;20306;-80
2023/12/16 00:40:13;;;;;;;16.60;2.90;;;;;;;;;;5127500;27;20062;-78
2023/12/16 00:42:39;;;;;;;11.85;2.47;;;;;;;;;;5127419;27;20078;-79
2023/12/16 00:45:06;;;;;;;12.93;3.20;;;;;;;;;;5110316;27;20043;-80
2023/12/16 00:47:33;;;;;;;11.05;2.08;;;;;;;;;;5145903;27;20031;-79
2023/12/16 00:50:01;;;;;;;11.52;1.83;;;;;;;;;;5110627;27;20042;-80
2023/12/16 00:52:28;;;;;;;12.77;2.58;;;;;;;;;;5127507;27;20073;-80
2023/12/16 00:54:54;;;;;;;16.25;2.97;;;;;;;;;;5110187;27;20039;-81
2023/12/16 00:57:20;;;;;;;11.23;2.65;;;;;;;;;;5127211;27;20042;-80
2023/12/16 00:59:46;;;;;;;20.27;3.35;;;;;;;;;;5110733;27;20488;-80
2023/12/16 01:02:12;;;;;;;20.30;3.70;;;;;;;;;;5110269;27;20035;-81
2023/12/16 01:04:38;;;;;;;15.07;2.08;;;;;;;;;;5127524;27;20590;-81
2023/12/16 01:07:05;;;;;;;11.73;2.22;;;;;;;;;;5110326;27;20138;-80
2023/12/16 01:09:31;;;;;;;16.05;2.70;;;;;;;;;;5127018;27;20075;-80
2023/12/16 01:11:57;;;;;;;12.48;2.22;;;;;;;;;;5126698;27;20059;-79
2023/12/16 01:14:23;;;;;;;15.45;4.05;;;;;;;;;;5126621;27;20121;-80
2023/12/16 01:16:49;;;;;;;18.13;2.53;;;;;;;;;;5126542;27;20042;-81
2023/12/16 01:19:15;;;;;;;10.00;2.53;;;;;;;;;;5109411;27;20039;-80
2023/12/16 01:21:42;;;;;;;10.02;2.28;;;;;;;;;;5126684;27;20067;-79
2023/12/16 01:24:08;;;;;;;15.73;3.00;;;;;;;;;;5109599;27;20521;-79
2023/12/16 01:26:34;;;;;;;10.02;2.30;;;;;;;;;;5126372;27;20042;-80
2023/12/16 01:29:00;;;;;;;11.90;2.38;;;;;;;;;;5109652;27;20499;-79
2023/12/16 01:31:27;;;;;;;23.42;3.53;;;;;;;;;;5109742;27;20152;-80
2023/12/16 01:33:53;;;;;;;11.23;2.20;;;;;;;;;;5126798;27;20565;-78
2023/12/16 01:36:25;;;;;;;11.75;3.00;;;;;;;;;;5126236;27;20043;-79
2023/12/16 01:38:51;;;;;;;17.30;2.20;;;;;;;;;;5126072;27;20043;-79
2023/12/16 01:41:17;;;;;;;14.55;2.67;;;;;;;;;;5126260;27;20050;-79
2023/12/16 01:43:43;;;;;;;15.75;2.53;;;;;;;;;;5109694;27;20069;-79
2023/12/16 01:46:09;;;;;;;13.90;3.25;;;;;;;;;;5108992;27;20411;-80
2023/12/16 01:48:35;;;;;;;21.23;2.50;;;;;;;;;;5109833;27;20043;-79
2023/12/16 01:51:01;;;;;;;14.10;2.85;;;;;;;;;;5108457;27;20482;-79
2023/12/16 01:53:28;;;;;;;12.60;3.95;;;;;;;;;;5108831;27;20042;-79
2023/12/16 01:55:54;;;;;;;14.55;2.65;;;;;;;;;;5125436;27;20070;-79
2023/12/16 01:58:22;;;;;;;20.52;2.40;;;;;;;;;;5108028;27;20552;-80
2023/12/16 02:00:51;;;;;;;11.52;2.78;;;5.20;99.90;;;;;;5108840;27;20043;-80
2023/12/16 02:03:18;;;;;;;20.80;3.42;;;;;;;;;;5107565;27;21071;-79
2023/12/16 02:05:45;;;;;;;17.70;2.65;;;;;;;;;;5125941;27;20035;-80
2023/12/16 02:08:11;;;;;;;11.55;2.47;;;;;;;;;;5109079;27;20070;-80
2023/12/16 02:10:37;;;;;;;13.90;2.80;;;;;;;;;;5125651;27;20562;-80
2023/12/16 02:13:04;;;;;;;17.52;2.70;;;;;;;;;;5108300;27;20372;-80
2023/12/16 02:15:30;;;;;;;14.55;3.08;;;;;;;;;;5125127;27;20046;-80
2023/12/16 02:17:56;;;;;;;15.38;3.25;;;;;;;;;;5108358;27;20042;-81
2023/12/16 02:20:22;;;;;;;22.27;3.42;;;;;;;;;;5125608;27;20039;-80
2023/12/16 02:22:48;;;;;;;19.92;4.43;;;;;;;;;;5125884;27;20074;-79
2023/12/16 02:25:15;;;;;;;23.35;4.88;;;;;;;;;;5125089;27;20116;-79
2023/12/16 02:27:42;;;;;;;13.75;2.60;;;;;;;;;;5108086;27;20030;-79
2023/12/16 02:30:09;;;;;;;18.48;2.53;;;;;;;;;;5124773;27;20080;-81
2023/12/16 02:32:35;;;;;;;20.05;3.22;;;;;;;;;;5108301;27;20069;-80
2023/12/16 02:35:01;;;;;;;16.40;2.63;;;;;;;;;;5108263;27;20129;-79
2023/12/16 02:37:28;;;;;;;14.27;3.75;;;;;;;;;;5107687;27;20050;-79
2023/12/16 02:39:54;;;;;;;13.00;2.35;;;;;;;;;;5108089;27;20046;-80
2023/12/16 02:42:20;;;;;;;12.10;2.60;;;;;;;;;;5107576;27;20101;-79
2023/12/16 02:44:46;;;;;;;17.08;3.10;;;;;;;;;;5125287;27;20467;-79
2023/12/16 02:47:12;;;;;;;18.75;2.92;;;;;;;;;;5107953;27;20043;-79
2023/12/16 02:49:39;;;;;;;18.95;4.38;;;;;;;;;;5108567;27;20120;-79
2023/12/16 02:52:05;;;;;;;17.02;4.03;;;;;;;;;;5108053;27;20088;-79
2023/12/16 02:54:31;;;;;;;20.88;2.92;;;;;;;;;;5108470;27;20042;-79
2023/12/16 02:56:57;;;;;;;15.00;3.20;;;;;;;;;;5125024;27;20043;-80
2023/12/16 02:59:24;;;;;;;19.45;3.20;;;;;;;;;;5107499;27;20051;-79
2023/12/16 03:01:50;;;;;;;21.90;4.65;;;;;;;;;;5126731;27;20535;-79
2023/12/16 03:04:16;;;;;;;15.73;3.20;;;;;;;;;;5128499;27;20070;-79
2023/12/16 03:06:46;;;;;;;14.50;3.58;;;4.30;99.90;;;;;;5110830;27;20043;-79
2023/12/16 03:09:12;;;;;;;16.77;4.07;;;;;;;;;;5112866;27;20839;-79
2023/12/16 03:11:38;;;;;;;24.85;3.58;;;;;;;;;;5131863;27;20043;-80
2023/12/16 03:14:04;;;;;;;14.10;3.28;;;;;;;;;;5130281;27;20435;-79
2023/12/16 03:16:33;;;;;;;15.25;3.50;;;4.20;99.90;;;;;;5112682;27;20141;-79
2023/12/16 03:18:59;;;;;;;22.00;3.60;;;;;;;;;;5129635;27;20039;-81
2023/12/16 03:21:25;;;;;;;20.95;4.10;;;;;;;;;;5128332;27;20569;-79
2023/12/16 03:23:51;;;;;;;21.02;4.53;;;;;;;;;;5111638;27;20043;-79
2023/12/16 03:26:18;;;;;;;15.50;3.95;;;;;;;;;;5128441;27;20092;-79
2023/12/16 03:28:44;;;;;;;20.63;4.20;;;;;;;;;;5111602;27;20035;-79
2023/12/16 03:31:10;;;;;;;23.83;4.68;;;;;;;;;;5111986;27;20538;-79
2023/12/16 03:33:36;;;;;;;22.05;3.63;;;;;;;;;;5129313;27;20038;-80
2023/12/16 03:36:02;;;;;;;14.23;4.63;;;;;;;;;;5129037;27;20042;-78
2023/12/16 03:38:29;;;;;;;16.83;4.63;;;;;;;;;;5111566;27;20050;-78
2023/12/16 03:40:57;;;;;;;15.95;4.50;;;;;;;;;;5112034;27;20783;-78
2023/12/16 03:43:23;;;;;;;16.75;4.20;;;;;;;;;;5111432;27;20042;-78
2023/12/16 03:45:49;;;;;;;20.27;3.72;;;;;;;;;;5111346;27;20411;-79
2023/12/16 03:48:16;;;;;;;16.58;4.20;;;;;;;;;;5128956;27;20046;-79
2023/12/16 03:50:43;;;;;;;17.95;3.67;;;;;;;;;;5128332;27;20438;-79
2023/12/16 03:53:09;;;;;;;20.00;5.03;;;3.70;99.90;;;;;;5111298;27;20512;-79
2023/12/16 03:55:35;;;;;;;19.33;4.35;;;;;;;;;;5110851;27;20490;-79
2023/12/16 03:58:01;;;;;;;15.30;3.63;;;;;;;;;;5127882;27;20039;-79
2023/12/16 04:00:27;;;;;;;16.92;4.57;;;;;;;;;;5110731;27;20066;-78
2023/12/16 04:02:53;;;;;;;22.27;5.20;;;;;;;;;;5110415;27;20058;-79
2023/12/16 04:05:19;;;;;;;22.80;4.55;;;;;;;;;;5127475;27;20061;-79
2023/12/16 04:07:45;;;;;;;17.55;4.82;;;;;;;;;;5127567;27;20035;-79
2023/12/16 04:10:12;;;;;;;25.83;4.53;;;;;;;;;;5127219;27;20031;-80
2023/12/16 04:12:38;;;;;;;23.15;4.07;;;;;;;;;;5127011;27;20134;-79
2023/12/16 04:15:04;;;;;;;27.15;5.18;;;;;;;;;;5127370;27;20042;-80
2023/12/16 04:17:30;;;;;;;15.05;3.60;;;;;;;;;;5109959;27;20046;-79
2023/12/16 04:19:56;;;;;;;23.15;5.25;;;;;;;;;;5127945;27;20128;-79
2023/12/16 04:22:23;;;;;;;17.75;3.72;;;;;;;;;;5126288;27;20141;-80
2023/12/16 04:24:50;;;;;;;23.90;5.43;;;;;;;;;;5110293;27;20083;-79
2023/12/16 04:27:16;;;;;;;18.48;4.55;;;;;;;;;;5110150;27;20522;-80
2023/12/16 04:29:42;;;;;;;21.00;4.78;;;;;;;;;;5109884;27;20038;-79
2023/12/16 04:32:08;;;;;;;17.15;4.07;;;;;;;;;;5109972;27;20380;-79
2023/12/16 04:34:34;;;;;;;24.52;4.85;;;;;;;;;;5126955;27;20050;-79
2023/12/16 04:37:00;;;;;;;21.75;3.90;;;;;;;;;;5126894;27;20039;-79
2023/12/16 04:39:27;;;;;;;26.77;4.43;;;;;;;;;;5126976;27;20038;-79
2023/12/16 04:41:53;;;;;;;16.92;4.40;;;;;;;;;;5109827;27;20367;-79
2023/12/16 04:44:19;;;;;;;15.65;3.90;;;;;;;;;;5109524;27;20039;-79
2023/12/16 04:46:45;;;;;;;19.58;4.95;;;;;;;;;;5109147;27;20050;-79
2023/12/16 04:49:11;;;;;;;22.08;4.50;;;;;;;;;;5109755;27;20070;-79
2023/12/16 04:51:37;;;;;;;24.08;5.10;;;;;;;;;;5110272;27;20076;-79
2023/12/16 04:54:05;;;;;;;27.05;5.78;;;;;;;;;;5109986;27;20471;-79
2023/12/16 04:56:31;;;;;;;25.98;4.88;;;;;;;;;;5127229;27;20039;-80
2023/12/16 04:58:57;;;;;;;16.95;4.40;;;;;;;;;;5110507;27;20141;-79
2023/12/16 05:01:23;;;;;;;24.08;3.63;;;;;;;;;;5127434;27;20668;-79
2023/12/16 05:03:49;;;;;;;15.90;3.30;;;;;;;;;;5109710;27;20047;-79
2023/12/16 05:06:15;;;;;;;26.48;5.88;;;;;;;;;;5127139;27;20073;-79
2023/12/16 05:08:41;;;;;;;19.52;4.47;;;;;;;;;;5109900;27;20070;-78
2023/12/16 05:11:08;;;;;;;26.83;4.15;;;;;;;;;;5127121;27;20410;-78
2023/12/16 05:13:34;;;;;;;24.83;5.72;;;;;;;;;;5126836;27;20130;-79
2023/12/16 05:16:00;;;;;;;25.52;4.57;;;;;;;;;;5109889;27;20045;-80
2023/12/16 05:18:26;;;;;;;26.10;6.60;;;;;;;;;;5109624;27;20043;-80
2023/12/16 05:20:52;;;;;;;26.80;3.67;;;;;;;;;;5126900;27;20108;-80
2023/12/16 05:23:19;;;;;;;24.02;4.43;;;;;;;;;;5109935;27;20045;-80
2023/12/16 05:25:45;;;;;;;35.75;5.35;;;;;;;;;;5126535;27;20051;-80
2023/12/16 05:28:11;;;;;;;31.55;5.60;;;;;;;;;;5109262;27;20491;-80
2023/12/16 05:30:37;;;;;;;21.88;3.92;;;;;;;;;;5109469;27;20817;-80
2023/12/16 05:33:04;;;;;;;25.73;5.40;;;;;;;;;;5126775;27;20039;-80
2023/12/16 05:35:30;;;;;;;20.52;5.25;;;;;;;;;;5127281;27;20051;-80
2023/12/16 05:37:56;;;;;;;25.08;4.30;;;;;;;;;;5127026;27;20043;-79
2023/12/16 05:40:22;;;;;;;21.90;5.03;;;;;;;;;;5109427;27;20046;-80
2023/12/16 05:42:49;;;;;;;28.63;4.53;;;;;;;;;;5126304;27;20042;-80
2023/12/16 05:45:15;;;;;;;32.55;4.93;;;;;;;;;;5109091;27;20071;-81
2023/12/16 05:47:41;;;;;;;26.20;4.90;;;;;;;;;;5126271;27;20085;-80
2023/12/16 05:50:08;;;;;;;26.55;4.97;;;;;;;;;;5126226;27;20087;-81
2023/12/16 05:52:36;;;;;;;20.08;5.63;;;;;;;;;;5109448;27;20566;-80
2023/12/16 05:55:02;;;;;;;28.98;5.55;;;;;;;;;;5126671;27;20043;-79
2023/12/16 05:57:28;;;;;;;41.83;7.78;;;4.70;99.90;;;;;;5126173;27;20034;-80
2023/12/16 05:59:54;;;;;;;30.10;6.75;;;;;;;;;;5126127;27;20765;-80
2023/12/16 06:02:20;;;;;;;28.13;6.93;;;;;;;;;;5109029;27;20047;-81
2023/12/16 06:04:46;;;;;;;18.00;4.93;;;;;;;;;;5108806;27;20099;-80
2023/12/16 06:07:12;;;;;;;32.65;6.60;;;;;;;;;;5125906;27;20134;-80
2023/12/16 06:09:39;;;;;;;32.75;6.10;;;;;;;;;;5108987;27;20043;-80
2023/12/16 06:12:05;;;;;;;26.20;6.82;;;;;;;;;;5126118;27;20042;-80
2023/12/16 06:14:31;;;;;;;28.23;5.63;;;;;;;;;;5108753;27;20043;-80
2023/12/16 06:16:57;;;;;;;26.33;5.32;;;;;;;;;;5108856;27;20500;-81
2023/12/16 06:19:23;;;;;;;27.45;5.47;;;;;;;;;;5108842;27;20436;-81
2023/12/16 06:21:49;;;;;;;33.70;6.15;;;;;;;;;;5125988;27;20038;-81
2023/12/16 06:24:16;;;;;;;27.10;5.65;;;;;;;;;;5108444;27;20039;-80
2023/12/16 06:26:42;;;;;;;29.27;5.68;;;;;;;;;;5125772;27;20042;-80
2023/12/16 06:29:08;;;;;;;28.10;5.85;;;;;;;;;;5108463;27;20547;-80
2023/12/16 06:31:35;;;;;;;20.88;6.82;;;;;;;;;;5108514;27;20096;-80
2023/12/16 06:34:01;;;;;;;35.25;6.45;;;;;;;;;;5108561;27;20043;-81
2023/12/16 06:36:27;;;;;;;34.20;6.50;;;;;;;;;;5108422;27;20164;-80
2023/12/16 06:38:53;;;;;;;29.65;6.38;;;;;;;;;;5108578;27;20049;-80
2023/12/16 06:41:19;;;;;;;32.00;8.55;;;;;;;;;;5124972;27;20787;-80
2023/12/16 06:43:45;;;;;;;39.78;8.85;;;;;;;;;;5125368;27;20046;-80
2023/12/16 06:46:11;;;;;;;34.90;8.50;;;;;;;;;;5111274;27;20050;-81
2023/12/16 06:48:37;;;;;;;33.42;8.15;;;;;;;;;;5129480;27;20043;-79
2023/12/16 06:51:04;;;;;;;34.83;8.07;;;;;;;;;;5129252;27;20059;-80
2023/12/16 06:53:30;;;;;;;32.22;8.20;;;;;;;;;;5129110;27;20043;-81
2023/12/16 06:55:57;;;;;;;33.53;7.60;;;;;;;;;;5111853;27;20047;-79
2023/12/16 06:58:23;;;;;;;29.38;6.18;;;;;;;;;;5111893;27;20579;-80
2023/12/16 07:00:49;;;;;;;28.20;7.43;;;;;;;;;;5111989;27;20049;-80
2023/12/16 07:03:15;;;;;;;31.33;6.50;;;;;;;;;;5112686;27;20039;-80
2023/12/16 07:05:41;;;;;;;34.40;7.10;;;;;;;;;;5129739;27;20035;-79
2023/12/16 07:08:08;;;;;;;25.80;5.75;;;;;;;;;;5130107;27;20047;-80
2023/12/16 07:10:34;;;;;;;37.53;9.15;;;;;;;;;;5113567;27;20043;-80
2023/12/16 07:13:00;;;;;;;37.40;7.22;;;;;;;;;;5133506;27;20039;-80
2023/12/16 07:15:26;;;;;;;30.15;7.07;;;;;;;;;;5133542;27;20046;-80
2023/12/16 07:17:52;;;;;;;32.53;7.63;;;;;;;;;;5114457;27;20046;-80
2023/12/16 07:20:18;;;;;;;32.88;6.47;;;;;;;;;;5129525;27;20129;-80
2023/12/16 07:22:44;;;;;;;33.50;7.80;;;;;;;;;;5129339;27;20126;-80
2023/12/16 07:25:10;;;;;;;31.17;6.55;;;;;;;;;;5129436;27;20051;-80
2023/12/16 07:27:37;;;;;;;39.08;8.65;;;;;;;;;;5112357;27;20122;-80
2023/12/16 07:30:03;;;;;;;33.22;8.27;;;;;;;;;;5112060;27;20645;-80
2023/12/16 07:32:29;;;;;;;46.20;10.15;;;;;;;;;;5129561;27;20035;-79
2023/12/16 07:34:56;;;;;;;32.75;6.88;;;;;;;;;;5129393;27;20495;-79
2023/12/16 07:37:25;;;;;;;33.33;7.88;;;;;;;;;;5129597;27;20121;-80
2023/12/16 07:39:51;;;;;;;33.90;6.50;;;;;;;;;;5111887;27;20122;-80
2023/12/16 07:42:17;;;;;;;33.40;9.45;;;;;;;;;;5111674;27;20802;-80
2023/12/16 07:44:43;;;;;;;38.38;7.63;;;;;;;;;;5129106;27;20504;-81
2023/12/16 07:47:09;;;;;;;30.58;8.52;;;;;;;;;;5128323;27;20123;-80
2023/12/16 07:49:35;;;;;;;39.90;7.80;;;;;;;;;;5111224;27;20130;-79
2023/12/16 07:52:01;;;;;;;39.85;9.75;;;;;;;;;;5128563;27;20077;-80
2023/12/16 07:54:27;;;;;;;28.52;7.35;;;;;;;;;;5128075;27;20042;-80
2023/12/16 07:56:54;;;;;;;36.28;8.55;;;;;;;;;;5127068;27;20042;-80
2023/12/16 07:59:20;;;;;;;24.00;6.68;;;;;;;;;;5128212;27;20046;-79
2023/12/16 08:01:53;;;;;;;34.70;8.73;;;;;;;;;;5127989;27;20043;-80
2023/12/16 08:04:19;;;;;;;37.28;9.40;;;;;;;;;;5128057;27;20078;-80
2023/12/16 08:06:46;;;;;;;30.55;8.50;;;;;;;;;;5110846;27;20035;-79
2023/12/16 08:09:13;;;;;;;35.42;8.77;;;;;;;;;;5110506;27;20039;-79
2023/12/16 08:11:39;;;;;;;27.50;8.25;;;;;;;;;;5111327;27;20038;-81
2023/12/16 08:14:06;;;;;;;34.00;7.70;;;;;;;;;;5128454;27;20039;-80
2023/12/16 08:16:33;;;;;;;37.70;8.43;;;;;;;;;;5111057;27;20049;-80
2023/12/16 08:18:59;;;;;;;32.15;8.63;;;;;;;;;;5111122;27;20049;-80
2023/12/16 08:21:25;;;;;;;34.50;7.57;;;;;;;;;;5111026;27;20065;-80
2023/12/16 08:23:51;;;;;;;31.17;8.65;;;;;;;;;;5128194;27;20455;-80
2023/12/16 08:26:17;;;;;;;32.05;8.32;;;;;;;;;;5128053;27;20575;-80
2023/12/16 08:28:43;;;;;;;30.73;8.38;;;;;;;;;;5128554;27;20114;-81
2023/12/16 08:31:09;;;;;;;40.53;9.93;;;;;;;;;;5110881;27;20038;-80
2023/12/16 08:33:36;;;;;;;42.35;9.15;;;;;;;;;;5111374;27;20055;-81
2023/12/16 08:36:02;;;;;;;34.28;7.93;;;;;;;;;;5111714;27;20372;-81
2023/12/16 08:38:39;;;;;;;45.67;11.07;;;;;;;;;;5111501;27;20057;-80
2023/12/16 08:41:08;;;;;;;37.03;9.85;;;;;;;;;;5127914;27;20057;-81
2023/12/16 08:43:38;;;;;;;34.60;11.00;;;;;;;;;;5110753;27;20042;-80
2023/12/16 08:46:05;;;;;;;36.85;9.65;;;;;;;;;;5127763;27;20121;-81
2023/12/16 08:48:32;;;;;;;47.55;13.00;;;;;;;;;;5127722;27;20046;-79
2023/12/16 08:50:58;;;;;;;40.88;10.20;;;;;;;;;;5110583;27;20038;-80
2023/12/16 08:53:24;;;;;;;47.08;11.10;;;;;;;;;;5128017;27;20046;-80
2023/12/16 08:55:51;;;;;;;49.95;9.80;;;;;;;;;;5128067;27;20046;-80
2023/12/16 08:58:17;;;;;;;54.15;11.45;;;;;;;;;;5101906;27;20035;-79
2023/12/16 09:00:43;;;;;;;36.70;10.52;;;;;;;;;;5100024;27;20662;-80
2023/12/16 09:03:09;;;;;;;41.08;11.05;;;;;;;;;;5121057;27;20053;-80
2023/12/16 09:05:36;;;;;;;44.95;11.65;;;;;;;;;;5105435;27;20086;-80
2023/12/16 09:08:03;;;;;;;40.75;10.15;;;;;;;;;;5119353;27;20063;-79
2023/12/16 09:10:29;;;;;;;53.25;11.18;;;;;;;;;;5125265;27;20046;-80
2023/12/16 09:12:55;;;;;;;50.85;11.13;;;;;;;;;;5120159;27;20050;-79
2023/12/16 09:15:21;;;;;;;51.30;14.13;;;;;;;;;;5117074;27;20107;-80
2023/12/16 09:17:47;;;;;;;53.60;12.25;;;;;;;;;;5114544;27;20130;-79
2023/12/16 09:20:15;;;;;;;48.80;11.82;;;;;;;;;;5099624;27;20522;-81
2023/12/16 09:22:41;;;;;;;52.75;11.05;;;;;;;;;;5115420;27;20126;-79
2023/12/16 09:25:08;;;;;;;60.35;13.20;;;;;;;;;;5116017;27;20042;-81
2023/12/16 09:27:35;;;;;;;57.50;12.90;;;;;;;;;;5101854;27;20034;-80
2023/12/16 09:30:01;;;;;;;53.60;11.98;;;;;;;;;;5100695;27;20042;-81
2023/12/16 09:32:27;;;;;;;50.08;11.95;;;;;;;;;;5115356;27;20144;-81
2023/12/16 09:34:53;;;;;;;47.67;14.43;;;;;;;;;;5093586;27;20399;-80
2023/12/16 09:37:19;;;;;;;42.15;11.35;;;;;;;;;;5099705;27;20045;-81
2023/12/16 09:39:45;;;;;;;46.15;13.63;;;;;;;;;;5095677;27;20837;-81
2023/12/16 09:42:14;;;;;;;52.60;14.95;;;;;;;;;;5105956;27;20085;-81
2023/12/16 09:44:42;;;;;;;45.08;13.45;;;;;;;;;;5089282;27;20479;-81
2023/12/16 09:47:12;;;;;;;52.63;13.60;;;;;;;;;;5103675;27;20109;-81
2023/12/16 09:49:41;;;;;;;58.95;14.82;;;;;;;;;;5095508;27;20782;-79
2023/12/16 09:52:07;;;;;;;54.88;14.93;;;;;;;;;;5111147;27;20035;-79
2023/12/16 09:54:33;;;;;;;58.95;17.15;;;;;;;;;;5097751;27;20049;-79
2023/12/16 09:57:00;;;;;;;75.97;18.48;;;;;;;;;;5143846;27;20103;-79
2023/12/16 09:59:27;;;;;;;57.50;15.15;;;;;;;;;;5105666;27;20591;-81
2023/12/16 10:01:54;;;;;;;52.70;14.55;;;;;;;;;;5105290;27;20053;-80
2023/12/16 10:04:24;;;;;;;64.72;17.50;;;6.90;99.90;;;;;;5125712;27;20079;-79
2023/12/16 10:06:50;;;;;;;62.03;17.60;;;;;;;;;;5102752;27;20050;-79
2023/12/16 10:09:17;;;;;;;63.80;16.33;;;;;;;;;;5115818;27;20064;-79
2023/12/16 10:11:43;;;;;;;73.93;19.88;;;;;;;;;;5115666;27;20054;-80
2023/12/16 10:14:09;;;;;;;69.57;17.23;;;;;;;;;;5103100;27;20373;-79
2023/12/16 10:16:35;;;;;;;64.35;18.60;;;;;;;;;;5116008;27;20142;-80
2023/12/16 10:19:01;;;;;;;63.67;18.98;;;;;;;;;;5096594;27;20519;-79
2023/12/16 10:21:28;;;;;;;61.03;18.60;;;;;;;;;;5115312;27;20050;-79
2023/12/16 10:23:58;;;;;;;73.95;19.05;;;;;;;;;;5116362;27;20115;-79
2023/12/16 10:26:24;;;;;;;71.15;20.95;;;;;;;;;;5115975;27;20070;-79
2023/12/16 10:28:51;;;;;;;68.57;19.90;;;;;;;;;;5096956;28;20067;-79
2023/12/16 10:31:21;;;;;;;62.17;20.17;;;;;;;;;;5099246;27;20420;-80
2023/12/16 10:33:47;;;;;;;85.32;21.92;;;;;;;;;;5097535;27;20045;-79
2023/12/16 10:36:14;;;;;;;83.28;21.98;;;;;;;;;;5118936;27;20046;-80
2023/12/16 10:38:40;;;;;;;81.72;22.85;;;;;;;;;;5122831;27;20039;-78
2023/12/16 10:41:07;;;;;;;91.82;24.83;;;;;;;;;;5097942;27;20154;-79
2023/12/16 10:43:34;;;;;;;72.75;23.35;;;;;;;;;;5104157;27;20510;-80
2023/12/16 10:46:04;;;;;;;80.10;21.27;;;;;;;;;;5120884;27;20043;-80
2023/12/16 10:48:32;;;;;;;85.78;23.85;;;;;;;;;;5122604;27;20035;-80
2023/12/16 10:51:00;;;;;;;91.28;23.98;;;;;;;;;;5122376;27;20042;-81
2023/12/16 10:53:31;;;;;;;73.55;22.95;;;;;;;;;;5103171;27;20031;-81
2023/12/16 10:56:03;;;;;;;70.95;23.75;;;;;;;;;;5106169;27;20615;-80
2023/12/16 10:58:31;;;;;;;83.47;24.80;;;;;;;;;;5122813;27;20061;-81
2023/12/16 11:01:09;;;;;;;71.57;23.27;;;7.30;99.90;;;;;;5124811;27;20292;-80
2023/12/16 11:04:00;;;;;;;80.00;25.38;;;7.20;99.90;;;;;;5107429;27;20031;-81
2023/12/16 11:06:30;;;;;;;71.57;23.75;;;;;;;;;;5107167;27;20122;-81
2023/12/16 11:08:57;;;;;;;73.70;25.00;;;;;;;;;;5126414;27;20069;-82
2023/12/16 11:11:23;;;;;;;79.15;26.92;;;;;;;;;;5128612;27;20041;-79
2023/12/16 11:13:52;;;;;;;78.28;24.45;;;;;;;;;;5126195;27;20039;-81
2023/12/16 11:16:29;;;;;;;80.50;24.58;;;7.30;99.90;;;;;;5126042;27;20091;-81
2023/12/16 11:18:58;;;;;;;72.72;26.70;;;;;;;;;;5107931;27;20196;-81
2023/12/16 11:21:25;;;;;;;87.70;27.30;;;;;;;;;;5121481;27;20043;-81
2023/12/16 11:23:51;;;;;;;74.88;25.42;;;;;;;;;;5125057;27;20043;-81
2023/12/16 11:26:17;;;;;;;60.88;23.75;;;;;;;;;;5122387;27;20043;-81
2023/12/16 11:28:44;;;;;;;74.70;24.38;;;;;;;;;;5124472;27;20574;-81
2023/12/16 11:31:15;;;;;;;64.88;23.88;;;;;;;;;;5124429;27;20556;-82
2023/12/16 11:33:44;;;;;;;72.53;24.83;;;;;;;;;;5126813;27;20432;-82
2023/12/16 11:36:11;;;;;;;66.47;23.63;;;;;;;;;;5126289;27;20038;-81
2023/12/16 11:38:47;;;;;;;68.00;25.42;;;;;;;;;;5126420;27;20512;-81
2023/12/16 11:41:32;;;;;;;61.90;25.02;;;;;;;;;;5104938;27;20053;-82
2023/12/16 11:43:58;;;;;;;63.97;24.13;;;;;;;;;;5108773;27;20129;-80
2023/12/16 11:46:43;;;;;;;64.03;24.85;;;;;;;;;;5128253;27;20042;-80
2023/12/16 11:49:16;;;;;;;62.38;24.10;;;;;;;;;;5122088;27;20070;-81
2023/12/16 11:51:42;;;;;;;73.93;26.13;;;;;;;;;;5124119;27;20355;-81
2023/12/16 11:54:09;;;;;;;69.80;25.13;;;;;;;;;;5143941;27;20039;-81
2023/12/16 11:56:36;;;;;;;66.78;24.55;;;;;;;;;;5121076;27;20118;-82
2023/12/16 11:59:02;;;;;;;64.05;22.70;;;;;;;;;;5106067;27;20236;-81
2023/12/16 12:01:30;;;;;;;55.45;22.88;;;;;;;;;;5124129;27;20038;-82
2023/12/16 12:03:56;;;;;;;61.83;23.67;;;;;;;;;;5125983;27;20046;-81
2023/12/16 12:06:23;;;;;;;63.65;23.38;;;;;;;;;;5127587;27;20087;-81
2023/12/16 12:08:49;;;;;;;65.90;25.85;;;;;;;;;;5126256;27;20869;-81
2023/12/16 12:11:16;;;;;;;57.83;21.75;;;;;;;;;;5124031;27;20039;-81
2023/12/16 12:13:46;;;;;;;56.63;21.90;;;7.60;99.90;;;;;;5125447;27;20045;-81
2023/12/16 12:16:13;;;;;;;68.45;22.48;;;;;;;;;;5125544;27;20043;-82
2023/12/16 12:18:40;;;;;;;59.10;22.67;;;;;;;;;;5127519;27;20727;-81
2023/12/16 12:21:07;;;;;;;56.03;23.13;;;;;;;;;;5124508;27;20829;-81
2023/12/16 12:23:33;;;;;;;60.25;22.65;;;;;;;;;;5107462;27;20046;-82
2023/12/16 12:26:00;;;;;;;52.05;21.67;;;;;;;;;;5105781;27;20045;-81
2023/12/16 12:28:27;;;;;;;66.40;23.45;;;;;;;;;;5123433;27;20043;-81
2023/12/16 12:31:08;;;;;;;63.53;25.08;;;;;;;;;;5123034;27;20044;-82
2023/12/16 12:33:35;;;;;;;67.43;22.13;;;;;;;;;;5121529;27;20035;-81
2023/12/16 12:36:02;;;;;;;51.83;23.27;;;;;;;;;;5125278;27;20073;-81
2023/12/16 12:38:29;;;;;;;71.57;22.35;;;;;;;;;;5118411;27;20053;-82
2023/12/16 12:41:03;;;;;;;56.13;21.75;;;;;;;;;;5107018;27;20050;-82
2023/12/16 12:43:35;;;;;;;51.42;21.08;;;;;;;;;;5109613;27;20178;-82
2023/12/16 12:46:18;;;;;;;49.17;20.10;;;;;;;;;;5127285;27;20043;-81
2023/12/16 12:48:58;;;;;;;48.95;18.15;;;;;;;;;;5127520;27;20064;-82
2023/12/16 12:51:26;;;;;;;49.38;19.85;;;;;;;;;;5110039;27;20897;-82
2023/12/16 12:53:59;;;;;;;55.83;22.38;;;;;;;;;;5110336;27;20065;-81
2023/12/16 12:56:25;;;;;;;56.13;21.55;;;;;;;;;;5127350;27;20047;-82
2023/12/16 12:58:52;;;;;;;53.65;20.75;;;;;;;;;;5127828;27;20149;-82
2023/12/16 13:01:18;;;;;;;56.30;21.25;;;;;;;;;;5127832;27;20046;-82
2023/12/16 13:03:45;;;;;;;40.20;18.23;;;;;;;;;;5131859;27;20054;-81
2023/12/16 13:06:11;;;;;;;39.80;18.40;;;;;;;;;;5135708;27;20072;-82
2023/12/16 13:08:37;;;;;;;52.00;19.23;;;;;;;;;;5117831;27;20130;-81
2023/12/16 13:11:04;;;;;;;50.63;16.80;;;;;;;;;;5134457;27;20882;-81
2023/12/16 13:13:30;;;;;;;51.38;17.73;;;;;;;;;;5111670;27;20132;-82
2023/12/16 13:15:56;;;;;;;61.33;20.88;;;;;;;;;;5110083;27;20126;-80
2023/12/16 13:18:22;;;;;;;49.97;19.63;;;;;;;;;;5109556;27;20047;-81
2023/12/16 13:20:49;;;;;;;48.13;18.88;;;;;;;;;;5110622;27;20738;-81
2023/12/16 13:23:15;;;;;;;49.75;19.88;;;;;;;;;;5109692;27;20095;-81
2023/12/16 13:25:41;;;;;;;58.35;19.08;;;;;;;;;;5127060;27;20131;-81
2023/12/16 13:28:07;;;;;;;53.05;16.85;;;;;;;;;;5109667;27;20046;-82
2023/12/16 13:30:35;;;;;;;39.35;14.70;;;;;;;;;;5106673;27;20522;-81
2023/12/16 13:33:01;;;;;;;42.15;13.20;;;;;;;;;;5116650;27;20500;-82
2023/12/16 13:35:27;;;;;;;37.35;13.93;;;;;;;;;;5111366;27;20039;-81
2023/12/16 13:37:53;;;;;;;31.23;10.65;;;;;;;;;;5088567;27;20039;-81
2023/12/16 13:40:19;;;;;;;34.40;12.65;;;;;;;;;;5093663;27;20042;-82
2023/12/16 13:42:45;;;;;;;35.97;12.10;;;;;;;;;;5095444;27;20039;-80
2023/12/16 13:45:12;;;;;;;23.67;9.18;;;;;;;;;;5103721;27;20445;-80
2023/12/16 13:47:38;;;;;;;35.00;12.27;;;;;;;;;;5122388;27;20043;-81
2023/12/16 13:50:04;;;;;;;35.70;12.85;;;;;;;;;;5118183;27;20045;-82
2023/12/16 13:52:31;;;;;;;40.40;13.20;;;;;;;;;;5108824;27;20030;-81
2023/12/16 13:54:57;;;;;;;42.58;14.88;;;;;;;;;;5109396;27;20039;-81
2023/12/16 13:57:23;;;;;;;46.20;16.15;;;;;;;;;;5109662;27;20254;-82
2023/12/16 13:59:49;;;;;;;53.17;17.30;;;;;;;;;;5108811;27;20919;-81
2023/12/16 14:02:15;;;;;;;42.17;14.15;;;;;;;;;;5108410;27;20070;-81
2023/12/16 14:04:43;;;;;;;52.13;17.23;;;;;;;;;;5108326;27;20486;-81
2023/12/16 14:07:09;;;;;;;46.70;15.88;;;;;;;;;;5125196;27;20748;-80
2023/12/16 14:09:35;;;;;;;52.53;17.58;;;;;;;;;;5108437;27;20070;-81
2023/12/16 14:12:02;;;;;;;37.78;14.55;;;;;;;;;;5119453;27;20031;-82
2023/12/16 14:14:28;;;;;;;41.20;16.02;;;;;;;;;;5087684;27;20039;-81
2023/12/16 14:16:54;;;;;;;50.85;18.23;;;;;;;;;;5087775;27;20051;-81
2023/12/16 14:19:20;;;;;;;49.85;16.25;;;;;;;;;;5105133;27;20050;-82